Main page
METAR-TAF:

METAR-TAF

Airports :

Birmingham Airport

Birmingham, England

latitude: 52-27N, longitude: 001-44W, elevation: 99 m

Current weather observation

The report was made 48 minutes ago, at 19:20 UTC
Wind 11 kt from the West
Temperature 9°C
Humidity 61%
Pressure 1029 hPa
Visibility 10 km or more
Few clouds at a height of 4500 ft

METAR: EGBB 241920Z 28011KT 9999 FEW045 09/02 Q1029

Time: 20:08 (20:08 UTC)

Forecast

The report was made 3 hours and 15 minutes ago, at 16:53 UTC
Forecast valid from 24 at 18 UTC to 25 at 18 UTC
Wind 10 kt from the West
Visibility 10 km or more
Scattered clouds at a height of 3500 ft
Probability 30% :
Temporary
from 24 at 20 UTC to 25 at 04 UTC
Visibility: 9000 m
light rain showers
Becoming
from 25 at 06 UTC to 25 at 09 UTC
Wind 9 kt from the North/Northwest

TAF: EGBB 241653Z 2418/2518 28010KT 9999 SCT035 PROB30 TEMPO 2420/2504 9000 -SHRA BECMG 2506/2509 34009KT

Weather observations and forecasts of more than 4000 airports (METAR and TAF reports).

The available stations are represented by yellow and red dots on the map.

Hover mouse over dot to see the name of the station.

Then click to see weather observations and forecasts.

To change the map : click on the green buttons with a black cross to zoom in, on the green button with a dash to zoom out, or on the green arrows for adjacent maps.


METAR-TAF: